Borough, Connecticut
Current Conditions -  °F | °C
As of 6:56 AM on Thursday 29 Jan 2015 (Local Time) from KGON Reporting Station
Clear Clear  
Wind Chill:   Ceiling: Unl
Heat Index:   Visibility: 10mi
Dew Point: -3°   Wind: 5mph
Humidity: 61%   Direction: 30°NNE
Pressure: 30.31"   Gusts: NA
Location:  41.3595°N, 72.0439°W
Report Text: KGON 291156Z 03004KT 10SM CLR M13/M19 A3031 RMK AO2 SLP264 T11331194 11083 21144 53010
Loading
Personal Weather Stations






























Interactive Weather Map New forecast layout! Learn more

10-Day Weather Forecast

Advertisements
Track Severe Weather on mobile